Time;durP1;ratioP1;P1;durP2;ratioP2;P2;SDS_P1;SDS_P2;PMS_P1;PMS_P2;Temp;Humidity;BMP_temperature;BMP_pressure;BME280_temperature;BME280_humidity;BME280_pressure;Samples;Min_cycle;Max_cycle;Signal;HPM_P1;HPM_P2
2021/09/24 00:01:25;;;;;;;12.25;7.15;;;16.90;90.90;;;;;;5034825;28;20841;-75
2021/09/24 00:03:51;;;;;;;16.33;8.32;;;16.90;90.90;;;;;;5019871;28;20025;-75
2021/09/24 00:06:16;;;;;;;12.27;8.07;;;16.90;90.90;;;;;;5036191;28;20477;-75
2021/09/24 00:08:42;;;;;;;11.98;7.85;;;16.90;91.00;;;;;;5035279;28;20095;-75
2021/09/24 00:11:07;;;;;;;16.63;7.90;;;16.90;91.00;;;;;;5035450;28;20040;-75
2021/09/24 00:13:33;;;;;;;16.73;9.63;;;16.90;91.00;;;;;;5035814;28;20474;-75
2021/09/24 00:15:59;;;;;;;14.52;8.73;;;16.90;91.00;;;;;;5053412;28;20083;-75
2021/09/24 00:18:25;;;;;;;19.40;9.50;;;16.80;91.00;;;;;;5035898;28;20028;-75
2021/09/24 00:20:50;;;;;;;16.75;9.13;;;16.90;91.10;;;;;;5017056;28;20025;-75
2021/09/24 00:23:16;;;;;;;15.60;8.60;;;16.90;91.10;;;;;;5002270;28;20037;-75
2021/09/24 00:25:42;;;;;;;14.07;8.63;;;16.90;91.10;;;;;;5053244;28;20059;-75
2021/09/24 00:28:08;;;;;;;18.60;9.80;;;16.90;91.30;;;;;;5053360;28;20037;-75
2021/09/24 00:30:34;;;;;;;13.20;8.82;;;16.90;91.10;;;;;;5052020;28;20016;-75
2021/09/24 00:33:00;;;;;;;14.30;9.18;;;16.90;91.10;;;;;;5035470;28;20116;-75
2021/09/24 00:35:26;;;;;;;17.73;9.98;;;16.90;91.10;;;;;;5035093;28;20120;-75
2021/09/24 00:37:51;;;;;;;15.60;10.48;;;16.90;91.10;;;;;;5014491;28;20036;-75
2021/09/24 00:40:17;;;;;;;20.30;10.57;;;16.90;91.10;;;;;;5034770;28;20044;-75
2021/09/24 00:42:43;;;;;;;16.15;9.02;;;16.90;91.10;;;;;;5017718;28;20056;-75
2021/09/24 00:45:10;;;;;;;13.25;9.00;;;16.90;91.20;;;;;;5034576;28;20033;-75
2021/09/24 00:47:36;;;;;;;17.00;9.88;;;16.90;91.20;;;;;;5031991;28;20078;-75
2021/09/24 00:50:01;;;;;;;13.38;8.68;;;16.90;91.20;;;;;;5017742;28;20037;-75
2021/09/24 00:52:28;;;;;;;16.52;8.93;;;16.90;91.20;;;;;;5045300;28;20116;-75
2021/09/24 00:54:54;;;;;;;15.25;8.40;;;16.90;91.20;;;;;;5053938;28;20485;-75
2021/09/24 00:57:20;;;;;;;17.20;8.80;;;16.90;91.20;;;;;;5053348;28;20074;-75
2021/09/24 00:59:52;;;;;;;17.52;10.02;;;16.90;91.20;;;;;;5019074;28;20092;-76
2021/09/24 01:02:19;;;;;;;13.02;8.32;;;16.90;91.30;;;;;;5014651;28;20479;-75
2021/09/24 01:04:45;;;;;;;11.27;8.55;;;16.90;91.30;;;;;;5035540;28;20061;-76
2021/09/24 01:07:12;;;;;;;21.58;9.48;;;16.90;91.30;;;;;;5034919;28;20118;-75
2021/09/24 01:09:39;;;;;;;13.68;7.50;;;16.90;91.30;;;;;;5035401;28;20111;-75
2021/09/24 01:12:06;;;;;;;11.77;8.57;;;16.90;91.30;;;;;;5035165;28;20025;-75
2021/09/24 01:14:32;;;;;;;17.45;8.40;;;16.90;91.40;;;;;;5033512;28;20079;-75
2021/09/24 01:16:58;;;;;;;13.68;7.43;;;16.90;91.40;;;;;;5032244;28;20102;-75
2021/09/24 01:19:25;;;;;;;17.60;7.85;;;16.90;91.40;;;;;;5035238;28;20087;-75
2021/09/24 01:21:51;;;;;;;17.00;8.65;;;16.90;91.40;;;;;;5032740;28;20030;-75
2021/09/24 01:24:17;;;;;;;11.68;7.68;;;16.80;91.40;;;;;;5033062;28;20033;-75
2021/09/24 01:26:51;;;;;;;15.55;8.23;;;16.90;91.50;;;;;;5001771;28;20091;-75
2021/09/24 01:29:18;;;;;;;13.40;7.53;;;16.80;91.50;;;;;;5040786;28;20728;-75
2021/09/24 01:31:44;;;;;;;14.30;8.23;;;16.80;91.50;;;;;;5017969;28;20029;-75
2021/09/24 01:34:10;;;;;;;17.45;10.00;;;16.80;91.50;;;;;;5018264;28;20044;-75
2021/09/24 01:36:36;;;;;;;18.25;10.05;;;16.80;91.50;;;;;;5035412;28;20024;-75
2021/09/24 01:39:07;;;;;;;14.02;9.20;;;16.80;91.50;;;;;;5034858;28;20029;-75
2021/09/24 01:41:36;;;;;;;13.90;7.97;;;16.80;91.60;;;;;;5052919;28;20082;-75
2021/09/24 01:44:02;;;;;;;14.75;9.15;;;16.80;91.50;;;;;;5034312;28;20032;-75
2021/09/24 01:46:28;;;;;;;16.45;9.93;;;16.80;91.50;;;;;;5052678;28;20029;-76
2021/09/24 01:48:53;;;;;;;17.25;10.10;;;16.80;91.50;;;;;;5034592;28;20037;-75
2021/09/24 01:51:19;;;;;;;17.33;10.68;;;16.80;91.60;;;;;;5032426;28;20060;-75
2021/09/24 01:53:45;;;;;;;16.67;10.43;;;16.80;91.50;;;;;;5034340;28;20056;-75
2021/09/24 01:56:11;;;;;;;22.17;11.40;;;16.80;91.60;;;;;;5051950;28;20029;-75
2021/09/24 01:58:36;;;;;;;17.88;11.32;;;16.80;91.60;;;;;;5050228;28;20079;-75
2021/09/24 02:01:02;;;;;;;21.38;13.05;;;16.80;91.60;;;;;;5018100;28;20367;-75
2021/09/24 02:03:28;;;;;;;20.65;13.07;;;16.80;91.60;;;;;;5034067;28;20389;-75
2021/09/24 02:05:54;;;;;;;21.63;13.57;;;16.80;91.60;;;;;;5050272;28;20021;-75
2021/09/24 02:08:19;;;;;;;16.85;10.48;;;16.80;91.60;;;;;;5050513;28;20036;-75
2021/09/24 02:10:45;;;;;;;24.33;14.10;;;16.80;91.60;;;;;;5017734;28;20021;-75
2021/09/24 02:13:10;;;;;;;28.77;14.98;;;16.80;91.70;;;;;;5034121;28;20051;-75
2021/09/24 02:15:36;;;;;;;28.67;16.77;;;16.80;91.70;;;;;;5001232;28;20036;-75
2021/09/24 02:18:02;;;;;;;24.63;14.93;;;16.80;91.80;;;;;;5016932;28;20116;-75
2021/09/24 02:20:27;;;;;;;27.00;15.38;;;16.70;91.80;;;;;;5014777;28;20041;-75
2021/09/24 02:22:53;;;;;;;27.90;17.48;;;16.70;91.80;;;;;;5032443;28;20163;-74
2021/09/24 02:25:18;;;;;;;32.97;16.33;;;16.80;91.80;;;;;;5032041;28;20033;-74
2021/09/24 02:27:44;;;;;;;27.85;16.27;;;16.80;91.90;;;;;;5032474;28;20078;-75
2021/09/24 02:30:10;;;;;;;40.42;21.88;;;16.80;91.90;;;;;;5016964;28;20036;-75
2021/09/24 02:32:36;;;;;;;40.67;23.67;;;16.80;91.90;;;;;;5050091;28;20082;-74
2021/09/24 02:35:02;;;;;;;40.70;21.10;;;16.80;91.90;;;;;;5033136;28;20124;-75
2021/09/24 02:37:28;;;;;;;35.97;22.13;;;16.80;91.90;;;;;;5033602;28;20027;-75
2021/09/24 02:39:53;;;;;;;38.83;23.05;;;16.80;91.90;;;;;;5016844;28;20175;-75
2021/09/24 02:42:19;;;;;;;29.83;18.70;;;16.80;91.90;;;;;;5030519;28;20084;-74
2021/09/24 02:44:44;;;;;;;35.67;21.65;;;16.80;91.90;;;;;;5033886;28;20120;-75
2021/09/24 02:47:10;;;;;;;42.10;21.83;;;16.80;91.90;;;;;;5014760;28;20034;-75
2021/09/24 02:49:37;;;;;;;39.85;21.58;;;16.80;91.90;;;;;;5047201;28;20025;-75
2021/09/24 02:52:05;;;;;;;33.08;21.17;;;16.80;92.00;;;;;;5016039;28;20726;-75
2021/09/24 02:54:31;;;;;;;33.45;21.45;;;16.80;91.90;;;;;;5051149;28;20090;-74
2021/09/24 02:56:57;;;;;;;39.33;21.33;;;16.80;91.90;;;;;;5033411;28;20036;-75
2021/09/24 02:59:22;;;;;;;34.92;19.50;;;16.80;91.90;;;;;;5032743;28;20044;-75
2021/09/24 03:01:48;;;;;;;44.30;23.05;;;16.80;91.90;;;;;;5033114;28;20081;-75
2021/09/24 03:04:13;;;;;;;41.85;24.65;;;16.70;91.90;;;;;;5032874;28;20039;-75
2021/09/24 03:06:40;;;;;;;41.95;24.13;;;16.80;92.00;;;;;;5016633;28;20358;-75
2021/09/24 03:09:06;;;;;;;36.28;22.55;;;16.80;92.00;;;;;;5016604;28;20820;-75
2021/09/24 03:11:32;;;;;;;45.38;23.90;;;16.80;92.00;;;;;;5030800;28;20048;-75
2021/09/24 03:13:58;;;;;;;47.92;26.92;;;16.80;92.00;;;;;;5033328;28;20494;-75
2021/09/24 03:16:23;;;;;;;55.20;26.67;;;16.80;92.00;;;;;;5033059;28;20478;-75
2021/09/24 03:18:49;;;;;;;44.13;25.80;;;16.80;92.10;;;;;;5016327;28;20037;-75
2021/09/24 03:21:16;;;;;;;49.30;26.35;;;16.70;92.10;;;;;;5028502;28;20050;-75
2021/09/24 03:23:43;;;;;;;59.63;31.38;;;16.70;92.10;;;;;;5048109;28;20025;-75
2021/09/24 03:26:08;;;;;;;56.10;29.20;;;16.70;92.10;;;;;;5016052;28;20028;-75
2021/09/24 03:28:34;;;;;;;52.03;29.25;;;16.70;92.20;;;;;;5030589;28;20386;-75
2021/09/24 03:31:00;;;;;;;50.95;29.40;;;16.70;92.20;;;;;;5031147;28;20030;-75
2021/09/24 03:33:25;;;;;;;54.75;27.60;;;16.80;92.20;;;;;;5000056;28;20025;-75
2021/09/24 03:35:51;;;;;;;49.45;26.98;;;16.70;92.30;;;;;;5050276;28;20083;-75
2021/09/24 03:38:17;;;;;;;59.92;30.38;;;16.70;92.30;;;;;;5044390;28;20123;-75
2021/09/24 03:40:42;;;;;;;45.17;25.63;;;16.70;92.30;;;;;;5000429;28;20021;-75
2021/09/24 03:43:08;;;;;;;50.85;27.08;;;16.70;92.40;;;;;;5016092;28;20044;-75
2021/09/24 03:45:33;;;;;;;47.42;26.73;;;16.60;92.40;;;;;;5025764;28;20033;-75
2021/09/24 03:47:59;;;;;;;49.70;28.20;;;16.60;92.50;;;;;;5032173;28;20117;-75
2021/09/24 03:50:25;;;;;;;54.30;25.75;;;16.70;92.50;;;;;;5016109;28;20055;-75
2021/09/24 03:52:54;;;;;;;45.00;25.35;;;16.60;92.50;;;;;;5018692;28;20091;-75
2021/09/24 03:55:20;;;;;;;46.17;24.95;;;16.60;92.60;;;;;;5032487;28;20115;-75
2021/09/24 03:57:47;;;;;;;53.45;27.58;;;16.60;92.50;;;;;;5046982;28;20021;-75
2021/09/24 04:00:14;;;;;;;49.20;26.00;;;16.60;92.60;;;;;;5050601;28;20041;-76
2021/09/24 04:02:40;;;;;;;45.97;23.48;;;16.60;92.60;;;;;;5004003;28;20147;-75
2021/09/24 04:05:06;;;;;;;42.80;24.80;;;16.60;92.60;;;;;;5031008;28;20068;-75
2021/09/24 04:07:32;;;;;;;44.55;25.15;;;16.60;92.60;;;;;;5031212;28;20414;-75
2021/09/24 04:09:57;;;;;;;49.17;25.75;;;16.60;92.70;;;;;;5015990;28;20501;-75
2021/09/24 04:12:23;;;;;;;41.80;24.48;;;16.60;92.70;;;;;;5015936;28;20086;-75
2021/09/24 04:14:49;;;;;;;45.67;25.50;;;16.60;92.70;;;;;;5013829;28;20607;-75
2021/09/24 04:17:14;;;;;;;41.45;23.83;;;16.60;92.80;;;;;;5015877;28;20033;-75
2021/09/24 04:19:40;;;;;;;45.97;26.20;;;16.60;92.80;;;;;;5032462;28;20033;-75
2021/09/24 04:22:05;;;;;;;39.55;21.70;;;16.60;92.90;;;;;;5017253;28;20049;-75
2021/09/24 04:24:31;;;;;;;37.03;22.85;;;16.50;92.80;;;;;;5003738;28;20040;-75
2021/09/24 04:26:57;;;;;;;40.88;23.25;;;16.50;92.80;;;;;;5019325;28;20035;-75
2021/09/24 04:29:22;;;;;;;44.33;26.08;;;16.50;93.10;;;;;;5034950;28;20037;-75
2021/09/24 04:31:48;;;;;;;40.60;23.42;;;16.50;92.90;;;;;;5003065;28;20043;-75
2021/09/24 04:34:14;;;;;;;45.20;26.52;;;16.50;92.90;;;;;;5002989;28;20067;-75
2021/09/24 04:36:39;;;;;;;39.53;25.10;;;16.50;92.90;;;;;;5035200;28;20083;-75
2021/09/24 04:39:05;;;;;;;52.30;30.00;;;16.50;92.90;;;;;;5016586;28;20084;-75
2021/09/24 04:41:31;;;;;;;55.53;30.15;;;16.50;93.00;;;;;;5035471;28;20033;-75
2021/09/24 04:43:56;;;;;;;50.25;27.90;;;16.50;93.00;;;;;;5035749;28;20441;-75
2021/09/24 04:46:22;;;;;;;48.80;29.13;;;16.50;93.00;;;;;;5019076;28;20021;-75
2021/09/24 04:48:48;;;;;;;50.90;29.08;;;16.50;93.00;;;;;;5035870;28;20029;-75
2021/09/24 04:51:13;;;;;;;43.67;27.35;;;16.40;93.00;;;;;;5031871;28;20033;-75
2021/09/24 04:53:39;;;;;;;48.95;29.23;;;16.40;93.00;;;;;;5035602;28;20541;-76
2021/09/24 04:56:05;;;;;;;44.58;25.98;;;16.40;93.30;;;;;;5035672;28;20039;-75
2021/09/24 04:58:31;;;;;;;50.17;28.48;;;16.40;93.00;;;;;;5053007;28;20108;-75
2021/09/24 05:00:56;;;;;;;50.55;27.92;;;16.40;93.00;;;;;;5053402;28;20037;-75
2021/09/24 05:03:22;;;;;;;44.65;26.65;;;16.40;93.00;;;;;;5034625;28;20060;-75
2021/09/24 05:05:48;;;;;;;44.88;25.85;;;16.40;93.00;;;;;;5035707;28;20489;-75
2021/09/24 05:08:13;;;;;;;54.00;28.15;;;16.40;93.00;;;;;;5034732;28;20363;-75
2021/09/24 05:10:39;;;;;;;49.17;25.20;;;16.40;93.00;;;;;;5032647;28;20470;-75
2021/09/24 05:13:05;;;;;;;42.22;24.52;;;16.40;93.00;;;;;;5048569;28;20033;-75
2021/09/24 05:15:32;;;;;;;48.25;26.60;;;16.40;93.00;;;;;;5033542;28;20013;-75
2021/09/24 05:17:58;;;;;;;38.10;23.85;;;16.40;93.00;;;;;;5034098;28;20037;-75
2021/09/24 05:20:26;;;;;;;52.17;27.70;;;16.30;93.00;;;;;;5017398;28;20029;-75
2021/09/24 05:22:53;;;;;;;45.33;25.83;;;16.30;93.00;;;;;;5018573;28;20551;-74
2021/09/24 05:25:19;;;;;;;51.63;26.55;;;16.30;93.10;;;;;;5035106;28;20037;-75
2021/09/24 05:27:45;;;;;;;42.20;26.27;;;16.30;93.10;;;;;;5033453;28;20509;-75
2021/09/24 05:30:11;;;;;;;46.17;26.05;;;16.30;93.10;;;;;;5034833;28;20068;-76
2021/09/24 05:32:36;;;;;;;38.80;24.25;;;16.30;93.10;;;;;;5051075;28;20029;-75
2021/09/24 05:35:03;;;;;;;47.20;26.00;;;16.30;93.10;;;;;;5050461;28;20486;-74
2021/09/24 05:37:28;;;;;;;45.97;26.55;;;16.30;93.10;;;;;;5033620;28;20120;-75
2021/09/24 05:39:54;;;;;;;44.17;25.05;;;16.30;93.20;;;;;;5033695;28;20124;-75
2021/09/24 05:42:19;;;;;;;50.70;26.75;;;16.20;93.10;;;;;;5030990;28;20502;-75
2021/09/24 05:44:45;;;;;;;36.80;24.00;;;16.20;93.20;;;;;;5047428;28;20036;-75
2021/09/24 05:47:11;;;;;;;41.13;23.75;;;16.20;93.20;;;;;;5016881;28;20037;-75
2021/09/24 05:49:36;;;;;;;44.53;25.42;;;16.20;93.20;;;;;;5051936;28;20037;-75
2021/09/24 05:52:02;;;;;;;50.40;28.77;;;16.20;93.20;;;;;;5032220;28;20064;-75
2021/09/24 05:54:28;;;;;;;38.85;23.05;;;16.20;93.20;;;;;;5051633;28;20037;-75
2021/09/24 05:56:55;;;;;;;40.88;23.50;;;16.20;93.20;;;;;;5031995;28;20502;-75
2021/09/24 05:59:21;;;;;;;36.67;22.67;;;16.20;93.30;;;;;;5008718;28;20075;-75
2021/09/24 06:01:48;;;;;;;43.85;22.83;;;16.20;93.30;;;;;;5030455;28;20046;-75
2021/09/24 06:04:18;;;;;;;41.78;21.85;;;16.20;93.30;;;;;;5012229;28;20147;-75
2021/09/24 06:06:44;;;;;;;40.20;22.65;;;16.20;93.30;;;;;;5028141;28;20548;-75
2021/09/24 06:09:10;;;;;;;37.60;21.95;;;16.20;93.30;;;;;;5031982;28;20040;-75
2021/09/24 06:11:36;;;;;;;33.40;21.23;;;16.20;93.40;;;;;;5031851;28;20026;-74
2021/09/24 06:14:02;;;;;;;37.58;22.05;;;16.20;93.40;;;;;;5031392;28;20441;-74
2021/09/24 06:16:28;;;;;;;31.38;19.38;;;16.10;93.40;;;;;;5032048;28;20029;-75
2021/09/24 06:18:54;;;;;;;33.58;20.02;;;16.20;93.50;;;;;;5028407;28;20407;-75
2021/09/24 06:21:21;;;;;;;35.65;20.20;;;16.20;93.50;;;;;;5011984;28;20510;-75
2021/09/24 06:23:46;;;;;;;36.13;21.10;;;16.20;93.40;;;;;;5038386;28;20029;-75
2021/09/24 06:26:12;;;;;;;42.85;21.95;;;16.20;93.50;;;;;;5015035;28;20030;-75
2021/09/24 06:28:38;;;;;;;36.97;22.42;;;16.20;93.50;;;;;;5031335;28;20043;-75
2021/09/24 06:31:04;;;;;;;36.00;22.10;;;16.20;93.50;;;;;;5029187;28;20030;-75
2021/09/24 06:33:30;;;;;;;35.90;20.58;;;16.20;93.50;;;;;;5031287;28;20083;-75
2021/09/24 06:35:56;;;;;;;39.25;22.45;;;16.20;93.50;;;;;;5025129;28;20116;-75
2021/09/24 06:38:22;;;;;;;36.03;23.48;;;16.20;93.50;;;;;;4998444;28;20136;-76
2021/09/24 06:40:48;;;;;;;37.17;22.70;;;16.20;93.60;;;;;;5011615;28;20030;-75
2021/09/24 06:43:13;;;;;;;47.20;26.40;;;16.20;93.60;;;;;;5013464;28;20060;-75
2021/09/24 06:45:39;;;;;;;34.30;22.35;;;16.20;93.70;;;;;;5015052;28;20030;-75
2021/09/24 06:48:05;;;;;;;36.35;22.58;;;16.20;93.70;;;;;;5032772;28;20026;-75
2021/09/24 06:50:32;;;;;;;33.67;22.27;;;16.20;93.70;;;;;;5030840;28;20363;-75
2021/09/24 06:52:58;;;;;;;35.45;20.48;;;16.20;93.70;;;;;;5027876;28;20044;-75
2021/09/24 06:55:25;;;;;;;41.53;22.85;;;16.20;94.10;;;;;;5045629;28;20037;-75
2021/09/24 06:57:55;;;;;;;32.90;21.75;;;16.20;93.80;;;;;;5047350;28;20034;-75
2021/09/24 07:00:21;;;;;;;34.20;21.98;;;16.20;93.80;;;;;;5031324;28;20036;-75
2021/09/24 07:02:46;;;;;;;32.10;21.13;;;16.30;93.90;;;;;;5030646;28;20049;-75
2021/09/24 07:05:12;;;;;;;35.15;20.13;;;16.20;93.80;;;;;;5031188;28;20060;-75
2021/09/24 07:07:38;;;;;;;48.25;24.38;;;16.30;93.80;;;;;;5014343;28;20120;-75
2021/09/24 07:10:04;;;;;;;34.20;20.45;;;16.30;93.90;;;;;;5018776;28;20024;-75
2021/09/24 07:12:30;;;;;;;32.17;19.98;;;16.30;93.90;;;;;;5010856;28;20026;-75
2021/09/24 07:14:56;;;;;;;34.53;21.77;;;16.30;93.80;;;;;;5017145;28;20032;-75
2021/09/24 07:17:22;;;;;;;41.88;23.42;;;16.30;93.80;;;;;;5031549;28;20033;-75
2021/09/24 07:19:47;;;;;;;34.88;20.75;;;16.40;93.80;;;;;;5014170;28;20091;-74
2021/09/24 07:22:13;;;;;;;34.90;22.23;;;16.40;93.90;;;;;;5014287;28;20080;-75
2021/09/24 07:24:39;;;;;;;31.38;20.42;;;16.40;93.90;;;;;;5030362;28;20029;-75
2021/09/24 07:27:05;;;;;;;35.35;21.63;;;16.50;93.90;;;;;;5014083;28;20028;-76
2021/09/24 07:29:31;;;;;;;39.47;21.58;;;16.50;93.90;;;;;;5030517;28;20112;-75
2021/09/24 07:31:57;;;;;;;31.88;20.85;;;16.50;93.80;;;;;;5014092;28;20033;-75
2021/09/24 07:34:22;;;;;;;36.47;19.67;;;16.50;93.80;;;;;;5014283;28;20047;-75
2021/09/24 07:36:48;;;;;;;33.42;20.17;;;16.60;93.80;;;;;;5030412;28;20064;-75
2021/09/24 07:39:13;;;;;;;39.58;22.48;;;16.60;93.80;;;;;;5047067;28;20029;-75
2021/09/24 07:41:39;;;;;;;32.70;19.63;;;16.60;94.00;;;;;;5047199;28;20030;-75
2021/09/24 07:44:05;;;;;;;33.78;21.02;;;16.60;93.70;;;;;;5030458;28;20037;-75
2021/09/24 07:46:35;;;;;;;34.45;20.10;;;16.70;93.70;;;;;;5030344;28;20475;-75
2021/09/24 07:49:01;;;;;;;32.85;20.00;;;16.70;93.70;;;;;;5031754;28;20013;-75
2021/09/24 07:51:27;;;;;;;33.63;20.00;;;16.80;93.60;;;;;;5031513;28;20018;-75
2021/09/24 07:53:52;;;;;;;31.38;19.10;;;16.90;93.60;;;;;;5030350;28;20033;-75
2021/09/24 07:56:18;;;;;;;33.10;20.00;;;16.90;93.50;;;;;;5011550;28;20045;-75
2021/09/24 07:58:44;;;;;;;31.33;18.92;;;17.00;93.50;;;;;;5014502;28;20125;-75
2021/09/24 08:01:10;;;;;;;28.98;19.35;;;17.00;93.40;;;;;;5019851;28;20029;-75
2021/09/24 08:03:37;;;;;;;30.35;19.02;;;17.10;93.40;;;;;;5037574;28;20123;-75
2021/09/24 08:06:03;;;;;;;26.55;18.92;;;17.10;93.30;;;;;;5054003;28;20024;-75
2021/09/24 08:08:29;;;;;;;32.47;19.23;;;17.20;93.30;;;;;;5055329;28;20029;-75
2021/09/24 08:10:55;;;;;;;25.92;16.75;;;17.20;93.20;;;;;;5004687;28;20033;-75
2021/09/24 08:13:21;;;;;;;26.38;15.45;;;17.20;93.00;;;;;;5037398;28;20067;-75
2021/09/24 08:15:48;;;;;;;24.38;17.08;;;17.30;93.00;;;;;;5017291;28;20057;-75
2021/09/24 08:18:14;;;;;;;24.42;15.38;;;17.30;92.90;;;;;;5033932;28;20036;-75
2021/09/24 08:20:44;;;;;;;24.35;18.10;;;17.40;92.80;;;;;;5033820;28;20025;-75
2021/09/24 08:23:11;;;;;;;23.15;15.25;;;17.40;92.80;;;;;;5033912;28;20128;-76
2021/09/24 08:25:37;;;;;;;25.55;16.38;;;17.40;92.70;;;;;;5001055;28;20048;-75
2021/09/24 08:28:03;;;;;;;26.98;16.83;;;17.40;92.60;;;;;;5033770;28;20479;-76
2021/09/24 08:30:29;;;;;;;25.20;16.17;;;17.40;92.70;;;;;;5038744;28;20033;-75
2021/09/24 08:32:56;;;;;;;25.83;16.17;;;17.40;92.60;;;;;;5020638;28;20036;-75
2021/09/24 08:35:23;;;;;;;20.55;15.27;;;17.40;92.60;;;;;;5020565;28;20025;-75
2021/09/24 08:37:49;;;;;;;27.90;16.70;;;17.50;92.60;;;;;;5020587;28;20271;-75
2021/09/24 08:40:19;;;;;;;24.38;16.17;;;17.50;92.40;;;;;;5036905;28;20381;-76
2021/09/24 08:42:46;;;;;;;25.33;15.55;;;17.40;92.30;;;;;;5036327;28;20029;-75
2021/09/24 08:45:16;;;;;;;22.60;15.70;;;17.40;92.30;;;;;;5036400;28;20032;-75
2021/09/24 08:47:42;;;;;;;20.00;15.45;;;17.50;92.40;;;;;;5036211;28;20073;-75
2021/09/24 08:50:09;;;;;;;21.15;16.10;;;17.50;92.40;;;;;;5016107;28;20034;-75
2021/09/24 08:52:36;;;;;;;19.48;14.48;;;17.60;92.20;;;;;;5033018;28;20022;-75
2021/09/24 08:55:06;;;;;;;23.13;15.35;;;17.60;92.10;;;;;;5034490;28;20025;-75
2021/09/24 08:57:32;;;;;;;25.00;15.63;;;17.70;91.90;;;;;;5033215;28;20022;-75
2021/09/24 08:59:58;;;;;;;19.45;14.88;;;17.80;91.80;;;;;;5033058;28;20026;-75
2021/09/24 09:02:23;;;;;;;21.27;15.13;;;17.90;91.80;;;;;;5016026;28;20060;-75
2021/09/24 09:04:49;;;;;;;25.08;15.60;;;17.90;91.60;;;;;;5034065;28;20033;-75
2021/09/24 09:07:18;;;;;;;20.83;15.82;;;17.90;91.50;;;;;;5019308;28;20036;-75
2021/09/24 09:09:51;;;;;;;19.83;14.25;;;18.00;91.40;;;;;;5035229;28;20382;-75
2021/09/24 09:12:21;;;;;;;19.17;14.20;;;17.90;91.40;;;;;;5035663;28;20029;-75
2021/09/24 09:15:01;;;;;;;21.80;14.93;;;17.90;91.40;;;;;;5035840;28;20032;-75
2021/09/24 09:17:27;;;;;;;22.25;13.27;;;17.90;91.50;;;;;;5031345;28;20032;-76
2021/09/24 09:20:20;;;;;;;23.20;15.77;;;17.90;91.60;;;;;;5024448;28;20029;-75
2021/09/24 09:22:53;;;;;;;24.80;15.45;;;17.90;91.50;;;;;;5035503;28;20506;-75
2021/09/24 09:25:40;;;;;;;27.83;15.85;;;17.90;91.50;;;;;;5035612;28;20474;-75
2021/09/24 09:28:12;;;;;;;23.17;13.95;;;17.90;91.40;;;;;;5035367;28;20036;-75
2021/09/24 09:30:40;;;;;;;19.52;14.18;;;18.00;91.50;;;;;;5035284;28;20505;-75
2021/09/24 09:33:17;;;;;;;19.60;14.57;;;18.00;91.40;;;;;;5031785;28;20041;-75
2021/09/24 09:35:45;;;;;;;18.55;12.98;;;18.00;91.30;;;;;;5015417;28;20322;-75
2021/09/24 09:38:25;;;;;;;21.98;13.25;;;18.00;91.20;;;;;;5033589;28;20029;-75
2021/09/24 09:41:05;;;;;;;20.17;13.85;;;18.10;91.20;;;;;;5034522;28;20033;-76
2021/09/24 09:43:37;;;;;;;21.17;14.23;;;18.10;91.20;;;;;;5045249;28;20029;-75
2021/09/24 09:46:05;;;;;;;20.42;14.48;;;18.10;91.00;;;;;;5035627;28;20112;-76
2021/09/24 09:48:32;;;;;;;21.02;13.70;;;18.00;91.00;;;;;;5035637;28;20121;-75
2021/09/24 09:50:57;;;;;;;21.23;12.52;;;18.10;91.00;;;;;;5052320;28;20029;-75
2021/09/24 09:53:23;;;;;;;17.20;11.57;;;18.10;90.80;;;;;;5053007;28;20109;-76
2021/09/24 09:55:59;;;;;;;21.92;12.23;;;18.20;90.70;;;;;;5052713;28;20036;-77
2021/09/24 09:58:27;;;;;;;17.00;12.38;;;18.30;90.60;;;;;;5052430;28;20029;-75
2021/09/24 10:01:05;;;;;;;14.23;9.82;;;18.30;90.40;;;;;;5052826;28;20070;-76
2021/09/24 10:03:40;;;;;;;19.23;10.70;;;18.30;90.20;;;;;;5052651;28;20632;-77
2021/09/24 10:06:29;;;;;;;15.88;11.07;;;18.40;90.10;;;;;;5034985;28;20025;-77
2021/09/24 10:09:04;;;;;;;17.58;11.80;;;18.50;90.00;;;;;;5052327;28;20027;-77
2021/09/24 10:11:37;;;;;;;16.77;11.02;;;18.50;89.80;;;;;;5052864;28;20116;-77
2021/09/24 10:14:05;;;;;;;16.38;11.57;;;18.60;90.00;;;;;;5051733;28;20100;-77
2021/09/24 10:16:37;;;;;;;17.33;11.45;;;18.70;89.80;;;;;;5034354;28;20025;-77
2021/09/24 10:19:03;;;;;;;20.50;11.20;;;18.70;89.30;;;;;;5051947;28;20029;-77
2021/09/24 10:21:29;;;;;;;16.65;10.90;;;18.80;89.40;;;;;;5018686;28;20063;-77
2021/09/24 10:23:56;;;;;;;17.38;10.50;;;18.80;89.50;;;;;;5018016;28;20029;-77
2021/09/24 10:26:42;;;;;;;16.58;11.23;;;18.90;89.40;;;;;;5034852;28;20032;-77
2021/09/24 10:29:13;;;;;;;13.27;10.43;;;19.00;89.20;;;;;;5033740;28;20021;-77
2021/09/24 10:31:44;;;;;;;17.45;11.48;;;19.10;88.90;;;;;;5051381;28;20033;-77
2021/09/24 10:34:10;;;;;;;18.88;10.90;;;19.10;88.50;;;;;;5052282;28;20106;-77
2021/09/24 10:36:37;;;;;;;18.05;11.57;;;19.20;88.40;;;;;;5046240;28;20510;-77
2021/09/24 10:39:29;;;;;;;14.85;10.68;;;19.20;88.30;;;;;;5026507;28;20040;-77
2021/09/24 10:42:14;;;;;;;15.93;10.73;;;19.20;88.30;;;;;;5038007;28;20034;-77
2021/09/24 10:45:18;;;;;;;14.85;9.25;;;19.20;88.10;;;;;;5032787;28;20120;-77
2021/09/24 10:48:03;;;;;;;15.05;9.10;;;19.20;88.10;;;;;;5009496;28;20038;-77
2021/09/24 10:50:29;;;;;;;16.77;10.52;;;19.20;88.10;;;;;;5048735;28;20509;-77
2021/09/24 10:53:23;;;;;;;15.48;9.45;;;19.20;88.00;;;;;;5033136;28;20029;-77
2021/09/24 10:55:52;;;;;;;15.35;9.55;;;19.30;88.10;;;;;;5032364;28;20037;-77
2021/09/24 10:58:26;;;;;;;17.13;10.15;;;19.30;88.00;;;;;;5027453;28;20147;-77
2021/09/24 11:00:55;;;;;;;14.30;8.48;;;19.40;87.70;;;;;;5050930;28;20021;-77
2021/09/24 11:03:23;;;;;;;14.40;8.80;;;19.50;87.60;;;;;;5030229;28;20071;-76
2021/09/24 11:05:55;;;;;;;11.40;8.52;;;19.50;87.60;;;;;;5047848;28;20056;-77
2021/09/24 11:08:32;;;;;;;13.13;8.07;;;19.60;87.30;;;;;;5032457;28;20025;-77
2021/09/24 11:11:07;;;;;;;12.55;8.20;;;19.70;86.90;;;;;;5050116;28;20094;-78
2021/09/24 11:13:54;;;;;;;17.92;8.50;;;19.80;86.60;;;;;;5051291;28;20033;-79
2021/09/24 11:16:44;;;;;;;11.05;8.00;;;19.80;86.30;;;;;;5032985;28;20060;-78
2021/09/24 11:19:33;;;;;;;12.88;6.82;;;19.80;86.20;;;;;;5031038;28;20032;-77
2021/09/24 11:21:59;;;;;;;11.27;6.38;;;19.80;85.90;;;;;;5048615;28;20036;-76
2021/09/24 11:24:40;;;;;;;13.07;7.07;;;19.80;85.50;;;;;;5029117;28;20034;-76
2021/09/24 11:27:11;;;;;;;10.63;7.72;;;19.90;85.30;;;;;;5050309;28;20025;-76
2021/09/24 11:30:05;;;;;;;14.23;6.72;;;19.90;85.40;;;;;;5034309;28;20370;-76
2021/09/24 11:32:43;;;;;;;11.55;7.13;;;19.90;85.40;;;;;;5033058;28;20043;-77
2021/09/24 11:35:11;;;;;;;12.68;7.07;;;19.90;84.80;;;;;;5050832;28;20029;-76
2021/09/24 11:37:38;;;;;;;13.73;6.93;;;19.90;84.90;;;;;;5051924;28;20029;-76
2021/09/24 11:40:11;;;;;;;10.70;7.18;;;19.90;85.10;;;;;;5033914;28;20037;-76
2021/09/24 11:42:59;;;;;;;11.75;6.80;;;19.90;84.20;;;;;;5033939;28;20083;-76
2021/09/24 11:45:29;;;;;;;8.35;6.25;;;20.10;83.80;;;;;;5017272;28;20079;-77
2021/09/24 11:48:10;;;;;;;9.77;6.18;;;20.20;83.40;;;;;;5050640;28;20025;-76
2021/09/24 11:50:37;;;;;;;10.23;5.95;;;20.20;83.00;;;;;;5034156;28;20025;-76
2021/09/24 11:53:08;;;;;;;9.55;5.82;;;20.20;83.00;;;;;;5033729;28;20060;-76
2021/09/24 11:55:43;;;;;;;11.32;6.07;;;20.20;83.00;;;;;;5051398;28;20036;-76
2021/09/24 11:58:34;;;;;;;11.90;5.82;;;20.20;83.50;;;;;;5051365;28;20172;-76
2021/09/24 12:01:00;;;;;;;9.50;6.20;;;20.10;83.50;;;;;;5047697;28;20041;-75
2021/09/24 12:03:27;;;;;;;9.00;6.03;;;20.10;83.70;;;;;;5033097;28;20501;-76
2021/09/24 12:06:13;;;;;;;11.63;6.30;;;20.10;84.40;;;;;;5033338;28;20482;-76
2021/09/24 12:08:48;;;;;;;9.43;5.82;;;20.10;84.20;;;;;;5051377;28;20059;-75
2021/09/24 12:11:20;;;;;;;9.68;6.60;;;20.20;83.90;;;;;;5033700;28;20021;-76
2021/09/24 12:13:50;;;;;;;14.68;6.30;;;20.20;84.00;;;;;;5033813;28;20024;-76
2021/09/24 12:16:21;;;;;;;9.60;6.70;;;20.30;83.90;;;;;;5051185;28;20033;-76
2021/09/24 12:18:54;;;;;;;12.95;6.43;;;20.30;83.60;;;;;;5051765;28;20041;-76
2021/09/24 12:21:30;;;;;;;10.02;6.65;;;20.30;83.10;;;;;;5030370;28;20029;-76
2021/09/24 12:23:57;;;;;;;10.48;6.07;;;20.30;83.30;;;;;;5019197;28;20664;-76
2021/09/24 12:26:40;;;;;;;13.75;6.10;;;20.30;83.60;;;;;;5030124;28;20037;-76
2021/09/24 12:29:07;;;;;;;9.48;5.85;;;20.40;83.60;;;;;;5028743;28;20036;-76
2021/09/24 12:31:38;;;;;;;11.13;6.05;;;20.50;83.70;;;;;;5033388;28;20478;-76
2021/09/24 12:34:06;;;;;;;11.27;6.60;;;20.60;83.00;;;;;;5051511;28;20474;-76
2021/09/24 12:36:32;;;;;;;12.60;5.47;;;20.60;82.20;;;;;;5033534;28;20045;-76